createdAt,value
2019-01-31T00:00:31.379Z,6.70
2019-01-31T00:06:19.849Z,6.53
2019-01-31T00:12:08.704Z,5.50
2019-01-31T00:18:01.792Z,5.60
2019-01-31T00:24:03.286Z,6.10
2019-01-31T00:29:59.091Z,5.47
2019-01-31T00:35:41.596Z,5.50
2019-01-31T00:41:31.818Z,5.17
2019-01-31T00:47:06.445Z,5.30
2019-01-31T00:53:04.782Z,5.60
2019-01-31T00:59:02.908Z,5.40
2019-01-31T01:04:37.340Z,5.20
2019-01-31T01:10:21.993Z,5.10
2019-01-31T01:16:26.061Z,5.73
2019-01-31T01:22:33.238Z,5.10
2019-01-31T01:28:27.046Z,7.27
2019-01-31T01:34:23.182Z,5.03
2019-01-31T01:39:57.778Z,5.63
2019-01-31T01:46:25.248Z,4.73
2019-01-31T01:52:22.670Z,6.80
2019-01-31T01:57:51.678Z,5.40
2019-01-31T02:03:57.978Z,5.70
2019-01-31T02:09:39.904Z,5.80
2019-01-31T02:15:28.244Z,6.30
2019-01-31T02:21:16.633Z,6.13
2019-01-31T02:26:57.587Z,6.63
2019-01-31T02:32:45.789Z,6.30
2019-01-31T02:38:29.971Z,6.77
2019-01-31T02:44:22.580Z,6.53
2019-01-31T02:50:06.312Z,6.93
2019-01-31T02:56:03.275Z,6.17
2019-01-31T03:01:44.619Z,5.50
2019-01-31T03:07:57.032Z,5.83
2019-01-31T03:13:34.014Z,6.90
2019-01-31T03:19:11.093Z,6.00
2019-01-31T03:24:58.787Z,6.20
2019-01-31T03:30:52.605Z,7.10
2019-01-31T03:36:28.262Z,6.53
2019-01-31T03:42:25.470Z,6.40
2019-01-31T03:48:36.842Z,7.30
2019-01-31T03:54:47.609Z,8.10
2019-01-31T04:01:01.524Z,8.37
2019-01-31T04:06:26.511Z,6.10
2019-01-31T04:11:47.299Z,6.50
2019-01-31T04:17:07.991Z,8.47
2019-01-31T04:22:28.657Z,8.10
2019-01-31T04:27:49.697Z,6.47
2019-01-31T04:33:10.664Z,7.27
2019-01-31T04:38:31.282Z,6.63
2019-01-31T04:43:52.041Z,7.33
2019-01-31T04:49:12.512Z,10.00
2019-01-31T04:54:33.285Z,6.90
2019-01-31T04:59:54.034Z,7.00
2019-01-31T05:05:14.777Z,6.60
2019-01-31T05:10:42.863Z,7.63
2019-01-31T05:15:58.310Z,7.33
2019-01-31T05:21:20.966Z,7.27
2019-01-31T05:26:41.498Z,7.17
2019-01-31T05:32:05.895Z,7.27
2019-01-31T05:37:26.611Z,6.40
2019-01-31T05:42:47.258Z,7.37
2019-01-31T05:48:07.772Z,8.50
2019-01-31T05:53:28.778Z,7.53
2019-01-31T05:58:49.452Z,7.00
2019-01-31T06:04:10.261Z,11.47
2019-01-31T06:09:30.780Z,7.03
2019-01-31T06:14:51.553Z,7.53
2019-01-31T06:20:15.646Z,6.77
2019-01-31T06:25:35.924Z,7.30
2019-01-31T06:30:56.365Z,6.83
2019-01-31T06:36:16.985Z,6.73
2019-01-31T06:41:38.003Z,7.00
2019-01-31T06:47:00.034Z,8.43
2019-01-31T06:52:20.317Z,7.77
2019-01-31T06:57:40.783Z,9.57
2019-01-31T07:03:01.326Z,13.60
2019-01-31T07:08:21.963Z,15.73
2019-01-31T07:13:42.527Z,8.33
2019-01-31T07:19:03.309Z,13.37
2019-01-31T07:24:23.751Z,9.17
2019-01-31T07:29:44.227Z,10.30
2019-01-31T07:35:06.257Z,62.67
2019-01-31T07:40:27.514Z,20.87
2019-01-31T07:45:48.181Z,8.27
2019-01-31T07:51:10.140Z,7.23
2019-01-31T07:56:30.885Z,7.70
2019-01-31T08:01:51.595Z,8.60
2019-01-31T08:07:12.427Z,8.10
2019-01-31T08:12:34.633Z,6.90
2019-01-31T08:17:55.261Z,7.80
2019-01-31T08:23:15.990Z,7.50
2019-01-31T08:28:36.286Z,7.13
2019-01-31T08:33:57.039Z,7.50
2019-01-31T08:39:17.590Z,6.73
2019-01-31T08:44:38.254Z,9.70
2019-01-31T08:49:58.885Z,8.03
2019-01-31T08:55:20.529Z,6.27
2019-01-31T09:00:41.386Z,7.87
2019-01-31T09:06:01.898Z,7.60
2019-01-31T09:11:22.678Z,7.87
2019-01-31T09:16:43.513Z,6.20
2019-01-31T09:22:30.100Z,11.37
2019-01-31T09:28:31.758Z,10.93
2019-01-31T09:34:11.885Z,8.67
2019-01-31T09:39:57.837Z,9.73
2019-01-31T09:45:57.714Z,7.37
2019-01-31T09:51:49.670Z,8.13
2019-01-31T09:57:51.101Z,7.63
2019-01-31T10:03:55.548Z,6.47
2019-01-31T10:10:13.267Z,5.97
2019-01-31T10:16:32.169Z,7.73
2019-01-31T10:22:23.502Z,5.73
2019-01-31T10:28:21.000Z,7.17
2019-01-31T10:34:26.701Z,4.10
2019-01-31T10:40:13.988Z,5.73
2019-01-31T10:45:46.164Z,6.23
2019-01-31T10:51:58.113Z,6.50
2019-01-31T10:58:00.649Z,6.30
2019-01-31T11:04:02.234Z,5.00
2019-01-31T11:10:07.143Z,6.83
2019-01-31T11:15:54.676Z,5.53
2019-01-31T11:22:18.630Z,7.10
2019-01-31T11:28:15.462Z,7.40
2019-01-31T11:34:10.403Z,6.13
2019-01-31T11:40:07.407Z,5.53
2019-01-31T11:45:59.642Z,5.63
2019-01-31T11:51:51.226Z,4.70
2019-01-31T11:58:04.141Z,7.20
2019-01-31T12:03:24.684Z,4.47
2019-01-31T12:08:46.909Z,9.50
2019-01-31T12:14:08.922Z,6.53
2019-01-31T12:19:32.166Z,4.87
2019-01-31T12:24:52.955Z,6.40
2019-01-31T12:30:16.819Z,3.97
2019-01-31T12:35:37.062Z,4.43
2019-01-31T12:40:57.516Z,2.47
2019-01-31T12:46:18.205Z,4.07
2019-01-31T12:51:38.841Z,4.23
2019-01-31T12:56:59.501Z,4.30
2019-01-31T13:02:20.368Z,4.30
2019-01-31T13:07:41.101Z,5.43
2019-01-31T13:13:01.775Z,3.80
2019-01-31T13:18:22.422Z,4.40
2019-01-31T13:23:44.660Z,5.23
2019-01-31T13:29:05.352Z,4.27
2019-01-31T13:34:25.879Z,3.93
2019-01-31T13:39:46.514Z,4.77
2019-01-31T13:45:08.977Z,1.83
2019-01-31T13:50:29.959Z,6.07
2019-01-31T13:55:50.479Z,9.33
2019-01-31T14:01:11.483Z,6.60
2019-01-31T14:06:32.007Z,7.20
2019-01-31T14:11:52.781Z,3.80
2019-01-31T14:17:13.580Z,3.13
2019-01-31T14:22:42.741Z,3.33
2019-01-31T14:27:56.721Z,4.27
2019-01-31T14:33:22.109Z,3.67
2019-01-31T14:38:43.340Z,5.70
2019-01-31T14:44:04.008Z,3.50
2019-01-31T14:49:24.169Z,4.10
2019-01-31T14:54:44.821Z,5.00
2019-01-31T15:00:09.331Z,5.63
2019-01-31T15:05:30.880Z,4.87
2019-01-31T15:10:51.282Z,4.63
2019-01-31T15:16:12.028Z,6.30
2019-01-31T15:21:32.962Z,2.73
2019-01-31T15:26:53.799Z,5.07
2019-01-31T15:32:14.438Z,8.53
2019-01-31T15:37:35.658Z,5.57
2019-01-31T15:43:08.672Z,6.57
2019-01-31T15:48:29.250Z,5.90
2019-01-31T15:53:50.025Z,4.23
2019-01-31T15:59:10.353Z,5.27
2019-01-31T16:04:31.082Z,5.07
2019-01-31T16:09:51.648Z,4.63
2019-01-31T16:15:13.272Z,3.77
2019-01-31T16:20:33.948Z,3.80
2019-01-31T16:25:54.751Z,5.33
2019-01-31T16:31:16.787Z,5.67
2019-01-31T16:36:38.798Z,8.27
2019-01-31T16:41:59.213Z,11.23
2019-01-31T16:47:20.343Z,9.13
2019-01-31T16:52:40.815Z,8.33
2019-01-31T16:58:01.685Z,7.90
2019-01-31T17:09:57.934Z,10.27
2019-01-31T17:15:19.654Z,12.63
2019-01-31T17:20:45.121Z,11.83
2019-01-31T17:26:06.541Z,11.57
2019-01-31T17:31:27.460Z,9.70
2019-01-31T17:36:47.992Z,11.00
2019-01-31T17:42:08.682Z,8.80
2019-01-31T17:47:29.770Z,9.93
2019-01-31T17:52:50.639Z,11.70
2019-01-31T17:58:11.386Z,10.37
2019-01-31T18:03:31.657Z,11.17
2019-01-31T18:08:52.287Z,14.80
2019-01-31T18:14:13.066Z,12.13
2019-01-31T18:19:33.508Z,12.37
2019-01-31T18:24:54.064Z,12.50
2019-01-31T18:30:20.264Z,11.20
2019-01-31T18:35:40.896Z,13.57
2019-01-31T18:41:01.548Z,16.30
2019-01-31T18:46:22.148Z,18.40
2019-01-31T18:51:42.569Z,22.13
2019-01-31T18:57:03.248Z,28.10
2019-01-31T19:02:23.807Z,21.33
2019-01-31T19:07:44.411Z,16.50
2019-01-31T19:13:05.166Z,23.43
2019-01-31T19:18:26.626Z,34.37
2019-01-31T19:23:48.635Z,58.37
2019-01-31T19:29:09.182Z,47.23
2019-01-31T19:34:30.299Z,48.10
2019-01-31T19:39:51.915Z,36.33
2019-01-31T19:45:26.639Z,25.30
2019-01-31T19:50:47.097Z,25.77
2019-01-31T19:56:08.876Z,30.30
2019-01-31T20:01:29.516Z,23.17
2019-01-31T20:06:55.036Z,25.37
2019-01-31T20:12:15.289Z,29.37
2019-01-31T20:17:35.728Z,24.17
2019-01-31T20:22:57.460Z,24.17
2019-01-31T20:28:17.720Z,23.17
2019-01-31T20:33:38.218Z,27.20
2019-01-31T20:38:58.998Z,24.50
2019-01-31T20:44:20.309Z,26.53
2019-01-31T20:49:40.619Z,27.73
2019-01-31T20:55:01.419Z,26.90
2019-01-31T21:00:34.382Z,23.17
2019-01-31T21:05:54.753Z,28.47
2019-01-31T21:11:15.298Z,29.47
2019-01-31T21:16:51.352Z,24.27
2019-01-31T21:22:07.196Z,25.63
2019-01-31T21:27:27.511Z,27.43
2019-01-31T21:32:48.383Z,27.40
2019-01-31T21:38:08.975Z,28.57
2019-01-31T21:43:29.376Z,31.13
2019-01-31T21:48:50.214Z,27.33
2019-01-31T21:54:10.729Z,29.00
2019-01-31T21:59:31.330Z,33.83
2019-01-31T22:04:51.763Z,34.50
2019-01-31T22:10:13.265Z,36.27
2019-01-31T22:15:34.145Z,33.83
2019-01-31T22:20:54.584Z,29.67
2019-01-31T22:26:15.086Z,40.33
2019-01-31T22:31:35.966Z,32.37
2019-01-31T22:36:56.742Z,35.37
2019-01-31T22:42:17.179Z,31.77
2019-01-31T22:47:37.885Z,32.43
2019-01-31T22:52:58.341Z,38.07
2019-01-31T22:58:18.908Z,35.97
2019-01-31T23:03:39.779Z,39.80
2019-01-31T23:09:00.021Z,40.97
2019-01-31T23:14:20.714Z,41.40
2019-01-31T23:19:41.664Z,40.83
2019-01-31T23:25:02.358Z,43.87
2019-01-31T23:30:22.503Z,40.93
2019-01-31T23:35:43.766Z,39.70
2019-01-31T23:41:04.346Z,42.17
2019-01-31T23:46:24.983Z,42.17
2019-01-31T23:51:47.003Z,39.00
2019-01-31T23:57:07.884Z,43.30
